CheckWX is a tool to help pilots better visualize weather data.  It is not intended as a substitute for an official pre-flight weather briefing.

07:24:31 UTC

KOFF TAF
Offutt AFB Airport
Omaha, Nebraska, USA
TAF KOFF 310200Z 3102/0108 09007KT 9999 BKN120 BKN250 QNH3005INS BECMG 3111/3112 VRB05KT 9999 SCT120 SCT250 QNH3005INS BECMG 3117/3118 17009KT 9999 BKN060 BKN250 QNH2990INS TX19/3120Z TN07/3112Z

Mar-31@
02:00 UTC

Mar-31 @ 02:00 UTC

Mar-31@
11:00 UTC

Mar-31 @ 11:00 UTC

TAF KOFF 310200Z 3102/0108 09007KT 9999 BKN120 BKN250 QNH3005INS
Wind
  • 090° at 7 KTS
Cloud Levels
  • Broken at 12,000' AGL
  • Broken at 25,000' AGL

Mar-31@
11:00 UTC

Mar-31 @ 11:00 UTC

Mar-31@
17:00 UTC

Mar-31 @ 17:00 UTC

BECMG 3111/3112 VRB05KT 9999 SCT120 SCT250 QNH3005INS

Becoming

Becoming Conditions expected by Tue, Mar 31, 2020 @ 12:00 UTC

Wind
  • Variable at 5 KTS
Cloud Levels
  • Scattered at 12,000' AGL
  • Scattered at 25,000' AGL

Mar-31@
17:00 UTC

Mar-31 @ 17:00 UTC

Apr-1@
08:00 UTC

Apr-1 @ 08:00 UTC

BECMG 3117/3118 17009KT 9999 BKN060 BKN250 QNH2990INS TX19/3120Z TN07/3112Z

Becoming

Becoming Conditions expected by Tue, Mar 31, 2020 @ 18:00 UTC

Wind
  • 170° at 9 KTS
Cloud Levels
  • Broken at 6,000' AGL
  • Broken at 25,000' AGL